Detall de PIREP

Printer-friendly versionPDF version

[2014/10/09 16:31:00]
Flight IATA:CT3118
Pilot Number:042
Company ICAO:CAT
Aircraft Type:F100/A
PAX:23
Aircraft Registration:PFJ
Departing Airport: LEPA
Destination Airport: LFMP
Alternate Airport:LEGE
Online: VATSIM
Route:GALAT UN861 RODRA UM985 BCN UN870 DALIN A67 BGR A27 KANIG
Flight Level:F220
No Slew and time accel
No pause
Crash detect
Detect pilot in Cockpit between each 30 and 45 minutes
16:31 Zero fuel Weight: 81825 Lbs, Fuel Weight: 19358 Lbs
16:31 VATSIM:LEPA 091600Z 22008KT 190V250 CAVOK 26/20 Q1012 NOSIG
16:31 VATSIM:LFMP 091600Z 05009KT 9999 FEW050 BKN260 25/18 Q1009 NOSIG
16:35 Parking Brakes off
16:38 Take-off
16:38 Take off Weight: 100808 Lbs
16:38 Wind: 000º @ 000 Knots Heading: 238º
16:38 POS N39º 33´ 11´´ E002º 43´ 24´´
16:38 Gear Up: 176 Knots
16:38 Flaps:2 at 176 Knots
16:39 Flaps:1 at 187 Knots
16:39 Flaps:0 at 203 Knots
16:48 TOC
16:48 Fuel Weight: 17409 Lb
16:53 Wind:270º@025 Knots Heading: 345º Ground Speed: 422 Knots Altitude 21994 ft
17:08 Wind:270º@025 Knots Heading: 064º Ground Speed: 438 Knots Altitude 21994 ft
17:09 TOD
17:09 Fuel Weight: 15423 Lb
17:19 Flaps:1 at 243 Knots
17:21 Flaps:2 at 197 Knots
17:22 Gear Down: 187 Knots
17:22 Flaps:3 at 186 Knots
17:23 Wind:000º@000 Knots Heading: 328º Ground Speed: 170 Knots Altitude 1925 ft
17:25 TouchDown:Rate -134 ft/min Speed: 149 Knots
17:25 VATSIM:LFMP 091700Z 06006KT 9999 FEW050 BKN260 24/18 Q1009 NOSIG
17:25 Land
17:25 Wind:000º@000 Knots
17:25 Heading: 280º
17:25 Flight Duration: 00:47
17:25 Landing Weight: 96332 Lbs
17:25 POS N42º 44´ 59´´ E002º 51´ 52´´
17:28 Parking brakes on
17:28 Block to Block Duration: 00:53
17:28 Final Fuel: 14369 Lbls
17:28 Spent Fuel: 4988 Lbls
17:28 Flight Length: 265 NM
17:28 TOD Land Length: 63 NM

Exportar CSV

Powered by Drupal - Modified by Danger4k